Time;durP1;ratioP1;P1;durP2;ratioP2;P2;SDS_P1;SDS_P2;PMS_P1;PMS_P2;Temp;Humidity;BMP_temperature;BMP_pressure;BME280_temperature;BME280_humidity;BME280_pressure;Samples;Min_cycle;Max_cycle;Signal;HPM_P1;HPM_P2
2023/01/19 00:00:50;;;;;;;5.65;1.75;;;;;;;-0.17;100.00;99370.19;5112465;28;20048;-82
2023/01/19 00:03:17;;;;;;;2.80;1.50;;;;;;;-0.17;100.00;99329.84;5116622;27;20074;-82
2023/01/19 00:05:44;;;;;;;2.67;1.38;;;;;;;0.06;100.00;99377.53;5116505;27;20057;-82
2023/01/19 00:08:14;;;;;;;3.75;1.45;;;;;;;-0.32;100.00;99315.53;5133864;27;20050;-82
2023/01/19 00:10:43;;;;;;;5.15;1.92;;;;;;;0.05;100.00;99353.50;5098803;28;20102;-81
2023/01/19 00:13:10;;;;;;;3.25;1.50;;;;;;;-0.17;100.00;99314.41;5126880;27;20054;-82
2023/01/19 00:15:37;;;;;;;11.32;2.28;;;;;;;-0.24;100.00;99302.53;5134579;27;20404;-82
2023/01/19 00:18:04;;;;;;;7.22;1.70;;;;;;;-0.06;100.00;99342.53;5115299;27;20050;-82
2023/01/19 00:20:31;;;;;;;3.63;1.42;;;;;;;0.19;100.00;99373.84;5101832;27;20048;-83
2023/01/19 00:22:58;;;;;;;5.72;1.58;;;;;;;-0.13;100.00;99334.06;5134323;27;20069;-82
2023/01/19 00:25:26;;;;;;;5.78;1.70;;;;;;;-0.01;100.00;99367.31;5133540;27;20071;-82
2023/01/19 00:27:52;;;;;;;5.93;1.83;;;;;;;-0.08;100.00;99347.72;5115722;27;20043;-83
2023/01/19 00:30:19;;;;;;;5.43;1.55;;;;;;;0.01;100.00;99354.44;5134546;27;20634;-82
2023/01/19 00:32:46;;;;;;;4.88;1.30;;;;;;;-0.11;100.00;99328.91;5134593;27;20043;-82
2023/01/19 00:35:13;;;;;;;5.05;1.58;;;;;;;0.06;100.00;99349.22;5124844;27;20052;-81
2023/01/19 00:37:39;;;;;;;8.30;2.20;;;;;;;-0.06;100.00;99332.25;5112252;27;20047;-81
2023/01/19 00:40:07;;;;;;;6.65;1.73;;;;;;;-0.29;100.00;99307.75;5115614;27;20047;-81
2023/01/19 00:42:40;;;;;;;5.10;1.65;;;;;;;-0.31;100.00;99308.66;5134279;27;20496;-82
2023/01/19 00:45:08;;;;;;;4.05;1.95;;;;;;;-0.08;100.00;99339.16;5115385;27;20043;-82
2023/01/19 00:47:35;;;;;;;4.18;1.75;;;;;;;-0.11;100.00;99339.19;5114223;27;20047;-83
2023/01/19 00:50:02;;;;;;;2.17;1.30;;;;;;;-0.23;100.00;99311.94;5124527;27;20419;-83
2023/01/19 00:52:29;;;;;;;3.83;1.50;;;;;;;0.21;100.00;99384.13;5102266;28;20051;-82
2023/01/19 00:54:55;;;;;;;3.55;1.27;;;;;;;-0.46;100.00;99282.31;5108698;28;20488;-83
2023/01/19 00:57:22;;;;;;;9.57;2.03;;;;;;;-0.14;100.00;99334.97;5104981;27;20047;-82
2023/01/19 00:59:49;;;;;;;5.80;1.38;;;;;;;-0.32;100.00;99304.38;5133888;27;20050;-82
2023/01/19 01:02:16;;;;;;;4.45;1.42;;;;;;;-0.16;100.00;99334.13;5108888;28;20044;-83
2023/01/19 01:04:43;;;;;;;4.70;1.45;;;;;;;-0.38;100.00;99298.44;5126251;27;20047;-83
2023/01/19 01:07:09;;;;;;;2.83;1.30;;;;;;;-0.17;100.00;99324.72;5127818;27;20392;-82
2023/01/19 01:09:36;;;;;;;5.18;1.50;;;;;;;-0.24;100.00;99320.53;5123077;27;20047;-83
2023/01/19 01:12:03;;;;;;;4.57;1.70;;;;;;;-0.12;100.00;99338.34;5114520;27;20039;-82
2023/01/19 01:14:31;;;;;;;5.40;1.63;;;;;;;0.05;100.00;99374.06;5115671;27;20385;-82
2023/01/19 01:16:59;;;;;;;6.35;1.60;;;;;;;-0.25;100.00;99322.28;5112281;27;20055;-83
2023/01/19 01:19:26;;;;;;;8.25;2.33;;;;;;;-0.13;100.00;99340.94;5133835;27;20047;-82
2023/01/19 01:21:54;;;;;;;2.60;1.23;;;;;;;-0.02;100.00;99354.47;5115163;27;20118;-83
2023/01/19 01:24:21;;;;;;;4.00;1.90;;;;;;;-0.12;100.00;99342.66;5119525;27;20043;-83
2023/01/19 01:26:48;;;;;;;2.13;1.30;;;;;;;-0.12;100.00;99350.38;5114279;27;20069;-82
2023/01/19 01:29:15;;;;;;;3.13;1.50;;;;;;;-0.10;100.00;99346.03;5115278;27;20403;-82
2023/01/19 01:31:41;;;;;;;7.25;1.52;;;;;;;-0.09;100.00;99335.72;5122138;27;20051;-83
2023/01/19 01:34:08;;;;;;;3.25;1.40;;;;;;;-0.04;100.00;99345.94;5112018;28;20103;-83
2023/01/19 01:36:35;;;;;;;7.63;1.27;;;;;;;-0.06;100.00;99338.22;5110763;27;20062;-82
2023/01/19 01:39:02;;;;;;;3.38;1.48;;;;;;;-0.05;100.00;99355.38;5117338;27;20052;-83
2023/01/19 01:41:29;;;;;;;6.10;1.98;;;;;;;-0.03;100.00;99368.22;5120818;27;20800;-83
2023/01/19 01:43:57;;;;;;;4.78;1.25;;;;;;;0.06;100.00;99377.53;5101331;28;20049;-82
2023/01/19 01:46:26;;;;;;;9.65;1.65;;;;;;;-0.07;100.00;99364.84;5113102;27;20054;-82
2023/01/19 01:49:12;;;;;;;3.40;1.50;;;;;;;-0.15;100.00;99350.41;5132800;27;20043;-82
2023/01/19 01:51:49;;;;;;;2.42;1.38;;;;;;;-0.18;100.00;99361.59;5115467;28;20039;-83
2023/01/19 01:54:22;;;;;;;2.20;1.30;;;;;;;-0.45;100.00;99324.28;5103790;28;20041;-83
2023/01/19 01:56:51;;;;;;;;;;;;;;;0.01;100.00;99387.03;5111753;28;20047;-83
2023/01/19 01:59:37;;;;;;;3.10;1.50;;;;;;;-0.05;100.00;99382.84;5105370;28;19919;-83
2023/01/19 02:05:02;;;;;;;3.45;1.33;;;;;;;-0.12;100.00;99374.38;5132980;28;20058;-83
2023/01/19 02:13:29;;;;;;;5.47;1.60;;;;;;;-0.28;100.00;99376.34;5132738;28;20047;-82
2023/01/19 02:15:59;;;;;;;3.38;1.58;;;;;;;-0.69;100.00;99328.94;5114945;28;20065;-83
2023/01/19 02:18:28;;;;;;;2.13;1.30;;;;;;;-0.38;100.00;99374.75;5113895;28;20050;-83
2023/01/19 02:21:06;;;;;;;5.63;1.88;;;;;;;-0.39;100.00;99373.06;5126912;28;20437;-82
2023/01/19 02:23:57;;;;;;;2.88;1.42;;;;;;;-0.32;100.00;99379.84;5118624;27;20062;-83
2023/01/19 02:26:28;;;;;;;5.20;1.95;;;;;;;-0.66;100.00;99344.28;5108385;27;20058;-82
2023/01/19 02:29:01;;;;;;;3.72;1.48;;;;;;;-0.79;100.00;99319.66;5108966;27;20067;-83
2023/01/19 02:31:29;;;;;;;3.83;1.73;;;;;;;-0.41;100.00;99385.09;5121360;27;20117;-82
2023/01/19 02:33:58;;;;;;;4.47;2.03;;;;;;;-0.91;100.00;99299.25;5129716;27;20051;-83
2023/01/19 02:36:34;;;;;;;3.03;1.50;;;;;;;-0.78;100.00;99327.34;5115433;27;20495;-82
2023/01/19 02:39:03;;;;;;;3.38;1.38;;;;;;;-0.63;100.00;99343.41;5136032;27;20059;-82
2023/01/19 02:41:37;;;;;;;3.45;1.52;;;;;;;-0.64;100.00;99347.72;5136755;27;20066;-83
2023/01/19 02:44:07;;;;;;;4.70;1.70;;;;;;;-0.87;100.00;99313.75;5104808;27;20059;-82
2023/01/19 02:46:34;;;;;;;2.22;1.20;;;;;;;-0.73;100.00;99334.97;5117035;27;20046;-83
2023/01/19 02:49:00;;;;;;;2.95;1.83;;;;;;;-0.71;100.00;99332.38;5106190;28;20055;-83
2023/01/19 02:51:27;;;;;;;6.05;2.35;;;;;;;-0.93;100.00;99306.16;5133833;27;20043;-82
2023/01/19 02:53:57;;;;;;;4.53;1.65;;;;;;;-0.44;100.00;99386.00;5108096;28;20055;-83
2023/01/19 02:56:33;;;;;;;7.05;1.70;;;;;;;-0.41;100.00;99379.94;5113177;27;20059;-82
2023/01/19 02:59:44;;;;;;;6.07;1.45;;;;;;;-0.39;100.00;99368.78;5117840;27;20054;-82
2023/01/19 03:02:42;;;;;;;4.32;1.48;;;;;;;-0.33;100.00;99374.72;5066051;28;20043;-83
2023/01/19 03:05:25;;;;;;;2.53;1.40;;;;;;;-0.38;100.00;99362.75;5112720;28;20036;-83
2023/01/19 03:08:23;;;;;;;3.38;1.48;;;;;;;-0.34;100.00;99362.72;5111825;27;20051;-82
2023/01/19 03:10:57;;;;;;;5.03;1.50;;;;;;;-0.64;100.00;99316.00;5136684;27;20073;-83
2023/01/19 03:13:44;;;;;;;3.80;1.33;;;;;;;-0.44;100.00;99360.28;5136530;27;20059;-82
2023/01/19 03:16:33;;;;;;;4.72;1.50;;;;;;;-0.35;100.00;99364.44;5117690;27;20051;-82
2023/01/19 03:19:18;;;;;;;4.55;1.50;;;;;;;-0.35;100.00;99366.13;5100257;28;20071;-82
2023/01/19 03:21:49;;;;;;;4.65;1.40;;;;;;;-0.73;100.00;99321.28;5112144;27;20491;-81
2023/01/19 03:24:19;;;;;;;4.32;1.52;;;;;;;-0.93;100.00;99301.84;5115452;28;20047;-83
2023/01/19 03:26:54;;;;;;;4.03;1.60;;;;;;;-0.79;100.00;99322.22;5117079;27;20043;-82
2023/01/19 03:29:23;;;;;;;2.83;1.50;;;;;;;-0.94;100.00;99302.72;5104677;27;20465;-82
2023/01/19 03:31:52;;;;;;;4.78;2.85;;;;;;;-0.72;100.00;99339.25;5118194;27;20047;-82
2023/01/19 03:34:22;;;;;;;4.53;1.63;;;;;;;-0.98;100.00;99296.75;5113590;28;20507;-81
2023/01/19 03:36:53;;;;;;;2.95;1.50;;;;;;;-0.57;100.00;99361.31;5108113;28;20055;-82
2023/01/19 03:39:23;;;;;;;3.60;1.48;;;;;;;-0.82;100.00;99323.09;5132036;27;20100;-81
2023/01/19 03:41:56;;;;;;;6.78;1.70;;;;;;;-0.79;100.00;99315.34;5115470;28;20050;-82
2023/01/19 03:44:25;;;;;;;3.17;1.50;;;;;;;-0.73;100.00;99309.28;5112895;27;20051;-82
2023/01/19 03:46:54;;;;;;;3.80;1.58;;;;;;;-0.85;100.00;99292.31;5116727;27;20045;-82
2023/01/19 03:49:20;;;;;;;7.00;1.67;;;;;;;-0.97;100.00;99277.06;5135111;27;20047;-82
2023/01/19 03:51:47;;;;;;;4.10;1.58;;;;;;;-0.49;100.00;99338.09;5135480;27;20410;-81
2023/01/19 03:54:14;;;;;;;2.25;1.30;;;;;;;-1.04;100.00;99262.63;5116062;27;20051;-82
2023/01/19 03:56:42;;;;;;;4.95;1.40;;;;;;;-1.13;100.00;99245.63;5121566;27;20043;-81
2023/01/19 03:59:09;;;;;;;4.32;1.38;;;;;;;-1.00;100.00;99266.84;5103042;28;20097;-82
2023/01/19 04:01:36;;;;;;;3.70;1.30;;;;;;;-1.02;100.00;99279.69;5120476;27;20112;-81
2023/01/19 04:04:03;;;;;;;3.33;1.38;;;;;;;-1.00;100.00;99271.97;5135571;27;20046;-82
2023/01/19 04:06:30;;;;;;;2.40;1.40;;;;;;;-0.82;100.00;99296.56;5116091;27;20082;-81
2023/01/19 04:08:57;;;;;;;5.63;2.15;;;;;;;-0.92;100.00;99275.28;5106427;28;20048;-81
2023/01/19 04:11:24;;;;;;;4.45;1.83;;;;;;;-1.17;100.00;99244.81;5117097;27;20404;-81
2023/01/19 04:13:51;;;;;;;3.83;1.58;;;;;;;-0.94;100.00;99276.16;5117177;27;20053;-81
2023/01/19 04:16:19;;;;;;;7.15;3.45;;;;;;;-1.04;100.00;99262.63;5115025;27;20043;-82
2023/01/19 04:18:47;;;;;;;5.22;1.70;;;;;;;-1.24;100.00;99224.34;5103991;27;20047;-81
2023/01/19 04:21:14;;;;;;;5.45;1.40;;;;;;;-0.92;100.00;99279.56;5112974;28;20070;-82
2023/01/19 04:23:43;;;;;;;3.63;1.50;;;;;;;-1.24;100.00;99237.19;5112139;28;20074;-82
2023/01/19 04:26:09;;;;;;;3.25;1.30;;;;;;;-0.89;100.00;99298.34;5125071;27;20051;-81
2023/01/19 04:28:37;;;;;;;2.30;1.30;;;;;;;-1.19;100.00;99258.53;5116007;27;20048;-81
2023/01/19 04:31:05;;;;;;;6.63;1.88;;;;;;;-1.02;100.00;99274.56;5124687;27;20047;-82
2023/01/19 04:33:32;;;;;;;3.38;1.52;;;;;;;-0.79;100.00;99319.66;5117512;27;20040;-82
2023/01/19 04:35:59;;;;;;;3.92;1.50;;;;;;;-1.35;100.00;99238.22;5126754;27;20457;-82
2023/01/19 04:38:26;;;;;;;3.78;1.52;;;;;;;-1.04;100.00;99288.31;5103939;28;20062;-81
2023/01/19 04:40:53;;;;;;;5.78;1.55;;;;;;;-1.18;100.00;99258.50;5109806;27;20050;-81
2023/01/19 04:43:21;;;;;;;4.45;1.50;;;;;;;-1.28;100.00;99248.38;5134614;27;20055;-82
2023/01/19 04:45:48;;;;;;;3.50;1.55;;;;;;;-1.01;100.00;99278.84;5101714;27;20052;-81
2023/01/19 04:48:17;;;;;;;2.42;1.40;;;;;;;-0.89;100.00;99294.94;5133532;27;20051;-82
2023/01/19 04:50:44;;;;;;;3.20;1.60;;;;;;;-1.12;100.00;99249.88;5101699;28;20378;-81
2023/01/19 04:53:12;;;;;;;3.00;1.40;;;;;;;-0.99;100.00;99265.97;5113070;28;20374;-82
2023/01/19 04:55:39;;;;;;;1.95;1.30;;;;;;;-1.15;100.00;99255.91;5103261;28;20043;-81
2023/01/19 04:58:06;;;;;;;2.78;1.20;;;;;;;-0.98;100.00;99275.38;5114211;27;20046;-82
2023/01/19 05:00:33;;;;;;;2.53;1.40;;;;;;;-1.01;100.00;99263.44;5133725;27;20529;-82
2023/01/19 05:03:00;;;;;;;2.10;1.40;;;;;;;-1.12;100.00;99249.03;5116185;27;20044;-82
2023/01/19 05:05:28;;;;;;;2.95;1.60;;;;;;;-0.85;100.00;99291.44;5123006;27;20047;-82
2023/01/19 05:07:55;;;;;;;4.53;1.30;;;;;;;-1.13;100.00;99237.91;5133333;27;20062;-82
2023/01/19 05:10:22;;;;;;;2.50;1.60;;;;;;;-1.04;100.00;99253.19;5112262;28;20054;-82
2023/01/19 05:12:50;;;;;;;4.82;1.30;;;;;;;-0.82;100.00;99274.28;5095940;28;20047;-82
2023/01/19 05:15:17;;;;;;;4.68;1.50;;;;;;;-0.73;100.00;99277.59;5101610;27;20096;-82
2023/01/19 05:17:44;;;;;;;3.38;1.38;;;;;;;-0.67;100.00;99291.19;5133040;27;20047;-82
2023/01/19 05:20:12;;;;;;;2.95;1.35;;;;;;;-0.94;100.00;99247.91;5101399;27;20047;-82
2023/01/19 05:22:42;;;;;;;2.13;1.30;;;;;;;-0.86;100.00;99267.47;5116660;27;20053;-81
2023/01/19 05:25:09;;;;;;;4.28;1.40;;;;;;;-1.06;100.00;99225.81;5134068;27;20043;-82
2023/01/19 05:27:36;;;;;;;5.75;1.60;;;;;;;-1.05;100.00;99237.78;5123215;27;20062;-83
2023/01/19 05:30:04;;;;;;;3.33;1.40;;;;;;;-0.77;100.00;99266.50;5107764;28;20059;-83
2023/01/19 05:32:31;;;;;;;3.00;1.48;;;;;;;-0.92;100.00;99257.31;5122090;27;20046;-83
2023/01/19 05:34:58;;;;;;;2.67;1.33;;;;;;;-1.18;100.00;99219.13;5134077;27;20055;-83
2023/01/19 05:37:25;;;;;;;1.30;1.10;;;;;;;-0.82;100.00;99266.56;5114914;28;20054;-82
2023/01/19 05:39:52;;;;;;;5.55;1.60;;;;;;;-0.91;100.00;99256.41;5132723;27;20047;-82
2023/01/19 05:42:20;;;;;;;2.88;1.50;;;;;;;-0.98;100.00;99247.94;5101009;28;20055;-82
2023/01/19 05:44:46;;;;;;;3.38;1.42;;;;;;;-1.01;100.00;99248.00;5115996;27;20058;-82
2023/01/19 05:47:13;;;;;;;3.17;1.50;;;;;;;-0.89;100.00;99266.69;5128916;27;20050;-82
2023/01/19 05:49:40;;;;;;;3.78;1.40;;;;;;;-1.13;100.00;99216.50;5114840;28;20051;-83
2023/01/19 05:52:07;;;;;;;3.28;1.42;;;;;;;-0.99;100.00;99264.25;5103263;28;20077;-83
2023/01/19 05:54:34;;;;;;;2.72;1.35;;;;;;;-1.27;100.00;99196.16;5099139;28;20434;-82
2023/01/19 05:57:01;;;;;;;2.45;1.40;;;;;;;-1.16;100.00;99219.97;5115990;27;20040;-82
2023/01/19 05:59:28;;;;;;;4.95;1.40;;;;;;;-1.07;100.00;99250.66;5119289;27;20047;-83
2023/01/19 06:01:55;;;;;;;4.93;1.42;;;;;;;-1.19;100.00;99208.03;5119257;27;20051;-83
2023/01/19 06:04:22;;;;;;;2.83;1.30;;;;;;;-1.15;100.00;99227.66;5116453;27;20441;-83
2023/01/19 06:06:50;;;;;;;1.83;1.10;;;;;;;-1.03;100.00;99238.59;5113943;28;20044;-83
2023/01/19 06:09:17;;;;;;;4.65;1.55;;;;;;;-1.08;100.00;99228.41;5121298;27;20058;-83
2023/01/19 06:11:45;;;;;;;4.22;1.50;;;;;;;-0.93;100.00;99237.63;5138587;27;20043;-83
2023/01/19 06:14:12;;;;;;;11.15;1.60;;;;;;;-1.17;100.00;99206.28;5138714;27;20050;-82
2023/01/19 06:16:39;;;;;;;3.75;1.38;;;;;;;-0.65;100.00;99291.19;5119305;27;20039;-83
2023/01/19 06:19:06;;;;;;;2.45;1.42;;;;;;;-0.69;100.00;99274.09;5137625;27;20078;-82
2023/01/19 06:21:33;;;;;;;5.22;1.88;;;;;;;-0.96;100.00;99241.09;5119575;27;20043;-82
2023/01/19 06:24:00;;;;;;;3.90;1.70;;;;;;;-0.85;100.00;99256.34;5138706;27;20050;-82
2023/01/19 06:26:26;;;;;;;3.75;1.42;;;;;;;-1.07;100.00;99214.69;5113290;27;20130;-82
2023/01/19 06:28:54;;;;;;;2.60;1.20;;;;;;;-0.97;100.00;99228.25;5124846;27;20075;-83
2023/01/19 06:31:20;;;;;;;3.80;1.40;;;;;;;-1.17;100.00;99207.97;5122928;27;20043;-83
2023/01/19 06:33:47;;;;;;;2.45;1.38;;;;;;;-1.10;100.00;99204.44;5122065;27;20051;-84
2023/01/19 06:36:14;;;;;;;2.70;1.30;;;;;;;-0.80;100.00;99269.09;5133713;27;20050;-83
2023/01/19 06:38:41;;;;;;;2.63;1.30;;;;;;;-0.76;100.00;99268.22;5116074;27;20478;-84
2023/01/19 06:41:08;;;;;;;4.30;1.30;;;;;;;-0.87;100.00;99245.22;5117574;27;20487;-85
2023/01/19 06:43:35;;;;;;;3.40;1.25;;;;;;;-1.03;100.00;99220.63;5135142;27;20047;-85
2023/01/19 06:46:02;;;;;;;4.40;1.50;;;;;;;-0.61;100.00;99274.81;5122755;27;20368;-86
2023/01/19 06:48:29;;;;;;;3.92;1.70;;;;;;;-0.64;100.00;99277.44;5116609;27;20135;-84
2023/01/19 06:50:56;;;;;;;3.75;1.50;;;;;;;-0.75;100.00;99263.91;5114959;27;20126;-86
2023/01/19 06:53:27;;;;;;;3.25;1.50;;;;;;;-0.63;100.00;99277.41;5132483;27;20071;-86
2023/01/19 06:56:00;;;;;;;3.03;1.38;;;;;;;-0.82;100.00;99279.41;5115357;27;20043;-86
2023/01/19 06:58:30;;;;;;;2.38;1.30;;;;;;;-1.09;100.00;99228.44;5130183;27;20104;-87
2023/01/19 07:01:02;;;;;;;3.60;1.75;;;;;;;-0.71;100.00;99278.41;5132796;27;20058;-86
2023/01/19 07:03:30;;;;;;;5.20;1.67;;;;;;;-0.90;100.00;99244.41;5114445;27;20561;-86
2023/01/19 07:05:59;;;;;;;3.80;1.30;;;;;;;-1.10;100.00;99231.88;5131752;27;20074;-86
2023/01/19 07:08:25;;;;;;;3.53;1.60;;;;;;;-0.96;100.00;99247.94;5119394;27;20051;-87
2023/01/19 07:10:58;;;;;;;3.53;1.33;;;;;;;-0.83;100.00;99256.31;5137962;27;20047;-86
2023/01/19 07:13:50;;;;;;;3.15;1.30;;;;;;;-0.95;100.00;99249.63;5111699;27;20083;-86
2023/01/19 07:16:17;;;;;;;3.35;1.42;;;;;;;-1.11;100.00;99223.31;5132202;27;20484;-85
2023/01/19 07:18:47;;;;;;;4.97;1.80;;;;;;;-0.80;100.00;99269.97;5132004;27;20075;-86
2023/01/19 07:21:14;;;;;;;4.35;1.40;;;;;;;-1.13;100.00;99217.34;5118102;27;20047;-85
2023/01/19 07:23:42;;;;;;;4.68;1.60;;;;;;;-1.30;100.00;99191.91;5117515;27;20054;-86
2023/01/19 07:26:09;;;;;;;3.45;1.50;;;;;;;-1.00;100.00;99223.16;5117159;27;20122;-86
2023/01/19 07:28:36;;;;;;;2.47;1.40;;;;;;;-1.02;100.00;99218.03;5111336;27;20051;-86
2023/01/19 07:31:03;;;;;;;2.95;1.27;;;;;;;-1.02;100.00;99218.03;5119948;27;20045;-85
2023/01/19 07:33:30;;;;;;;5.25;1.40;;;;;;;-1.21;100.00;99184.06;5120559;27;20126;-87
2023/01/19 07:35:57;;;;;;;2.40;1.33;;;;;;;-1.17;100.00;99180.59;5132812;27;20051;-86
2023/01/19 07:38:24;;;;;;;3.50;1.20;;;;;;;-1.12;100.00;99201.06;5137375;27;20404;-84
2023/01/19 07:40:50;;;;;;;4.60;1.40;;;;;;;-0.92;100.00;99218.75;5134113;27;20065;-85
2023/01/19 07:43:18;;;;;;;4.72;1.65;;;;;;;-1.01;100.00;99213.75;5123067;27;20158;-86
2023/01/19 07:45:45;;;;;;;2.92;1.23;;;;;;;-0.90;100.00;99217.03;5126046;27;20047;-86
2023/01/19 07:48:12;;;;;;;7.65;1.48;;;;;;;-0.91;100.00;99197.31;5124304;27;20077;-87
2023/01/19 07:50:40;;;;;;;3.85;1.50;;;;;;;-1.02;100.00;99171.81;5124681;27;20054;-87
2023/01/19 07:53:08;;;;;;;2.15;1.20;;;;;;;-0.89;100.00;99190.44;5123552;27;20070;-86
2023/01/19 07:55:35;;;;;;;4.10;1.50;;;;;;;-0.56;100.00;99233.63;5119261;28;20047;-87
2023/01/19 07:58:06;;;;;;;7.32;1.63;;;;;;;-0.51;100.00;99247.22;5139020;27;20050;-85
2023/01/19 08:00:35;;;;;;;6.03;1.60;;;;;;;-0.73;100.00;99206.47;5124210;27;20047;-87
2023/01/19 08:03:03;;;;;;;4.63;1.60;;;;;;;-0.46;100.00;99230.00;5119884;28;20048;-86
2023/01/19 08:05:32;;;;;;;2.25;1.40;;;;;;;-0.53;100.00;99231.00;5131708;27;20055;-87
2023/01/19 08:08:04;;;;;;;9.88;1.40;;;;;;;-0.72;100.00;99194.47;5141388;27;20063;-88
2023/01/19 08:10:33;;;;;;;2.30;1.30;;;;;;;-0.32;100.00;99246.09;5114718;28;20054;-87
2023/01/19 08:13:00;;;;;;;5.13;1.70;;;;;;;-0.95;100.00;99146.88;5138459;27;20051;-88
2023/01/19 08:15:27;;;;;;;5.82;1.60;;;;;;;-0.54;100.00;99211.31;5140782;27;20051;-86
2023/01/19 08:17:55;;;;;;;3.03;1.38;;;;;;;-0.67;100.00;99172.13;5120924;27;20057;-88
2023/01/19 08:20:24;;;;;;;3.65;1.40;;;;;;;-0.15;100.00;99237.22;5107331;27;20457;-87
2023/01/19 08:22:58;;;;;;;2.90;1.50;;;;;;;-0.13;100.00;99235.47;5121479;27;20053;-86
2023/01/19 08:25:31;;;;;;;3.90;1.52;;;;;;;-0.41;100.00;99171.63;5139143;27;20051;-87
2023/01/19 08:27:59;;;;;;;2.53;1.50;;;;;;;-0.10;100.00;99204.53;5136392;27;20436;-88
2023/01/19 08:30:26;;;;;;;4.70;1.50;;;;;;;-0.29;100.00;99170.59;5122374;27;20051;-87
2023/01/19 08:32:56;;;;;;;3.38;1.55;;;;;;;-0.08;100.00;99193.31;5138715;27;20043;-87
2023/01/19 08:35:24;;;;;;;5.88;1.52;;;;;;;-0.08;100.00;99179.63;5120505;27;20047;-87
2023/01/19 08:37:51;;;;;;;3.08;1.52;;;;;;;0.02;100.00;99188.88;5115785;27;20043;-87
2023/01/19 08:40:18;;;;;;;3.95;1.70;;;;;;;-0.13;100.00;99169.41;5115413;27;20039;-87
2023/01/19 08:42:45;;;;;;;2.10;1.30;;;;;;;-0.02;100.00;99179.50;5123105;27;20055;-88
2023/01/19 08:45:13;;;;;;;5.65;1.60;;;;;;;-0.25;100.00;99149.06;5134491;27;20054;-88
2023/01/19 08:47:40;;;;;;;3.22;1.23;;;;;;;-0.16;100.00;99148.03;5121673;27;20047;-88
2023/01/19 08:50:09;;;;;;;2.15;1.35;;;;;;;-0.07;100.00;99141.00;5124750;27;20134;-86
2023/01/19 08:52:36;;;;;;;4.45;1.67;;;;;;;0.17;100.00;99179.97;5113656;27;20058;-86
2023/01/19 08:55:04;;;;;;;4.93;1.48;;;;;;;-0.23;100.00;99089.00;5119968;27;20125;-86
2023/01/19 08:57:31;;;;;;;5.05;1.60;;;;;;;0.04;100.00;99161.38;5129003;27;20066;-86
2023/01/19 08:59:57;;;;;;;3.63;1.52;;;;;;;-0.08;100.00;99113.56;5107234;27;20399;-84
2023/01/19 09:02:24;;;;;;;5.32;1.40;;;;;;;-0.13;100.00;99111.97;5115362;28;20050;-86
2023/01/19 09:04:51;;;;;;;2.92;1.45;;;;;;;0.12;100.00;99132.91;5113274;28;20051;-87
2023/01/19 09:07:18;;;;;;;3.63;1.50;;;;;;;0.34;100.00;99162.47;5125137;27;20050;-87
2023/01/19 09:09:45;;;;;;;6.07;1.55;;;;;;;0.24;100.00;99134.38;5134684;27;20088;-87
2023/01/19 09:12:13;;;;;;;5.63;2.13;;;;;;;0.11;100.00;99100.34;5113620;28;20051;-86
2023/01/19 09:14:40;;;;;;;5.93;1.58;;;;;;;0.41;100.00;99126.28;5125278;27;20062;-87
2023/01/19 09:17:07;;;;;;;3.72;1.50;;;;;;;0.28;100.00;99099.97;5114337;27;20130;-86
2023/01/19 09:19:33;;;;;;;4.10;1.38;;;;;;;0.64;100.00;99130.91;5122485;27;20055;-87
2023/01/19 09:22:00;;;;;;;4.45;1.40;;;;;;;0.77;100.00;99167.56;5117283;27;20395;-86
2023/01/19 09:24:27;;;;;;;4.63;1.65;;;;;;;0.38;100.00;99098.88;5113026;28;20055;-87
2023/01/19 09:26:55;;;;;;;3.05;1.63;;;;;;;0.73;100.00;99120.41;5113616;27;20468;-87
2023/01/19 09:29:21;;;;;;;4.05;1.50;;;;;;;0.49;100.00;99090.91;5115469;27;20043;-87
2023/01/19 09:31:48;;;;;;;3.17;1.40;;;;;;;0.83;100.00;99123.59;5114732;27;20055;-87
2023/01/19 09:34:15;;;;;;;3.00;1.20;;;;;;;0.73;100.00;99113.53;5101550;28;20451;-87
2023/01/19 09:36:42;;;;;;;2.95;1.38;;;;;;;0.70;100.00;99081.84;5108418;27;20384;-87
2023/01/19 09:39:09;;;;;;;3.90;1.50;;;;;;;1.09;100.00;99159.06;5116247;27;20063;-86
2023/01/19 09:41:40;;;;;;;3.67;1.52;;;;;;;1.04;100.00;99115.34;5103508;28;20051;-87
2023/01/19 09:44:19;;;;;;;8.07;2.33;;;;;;;1.03;100.00;99098.22;5116048;28;20043;-87
2023/01/19 09:46:47;;;;;;;4.43;2.30;;;;;;;0.75;100.00;99057.66;5132927;27;20468;-86
2023/01/19 09:49:31;;;;;;;4.93;1.40;;;;;;;1.26;100.00;99125.16;5114521;27;20047;-87
2023/01/19 09:51:58;;;;;;;3.65;1.60;;;;;;;1.43;100.00;99130.69;5114123;28;20110;-85
2023/01/19 09:54:34;;;;;;;5.55;1.40;;;;;;;1.42;100.00;99130.78;5132499;28;20061;-86
2023/01/19 09:57:01;;;;;;;5.50;1.60;;;;;;;1.11;100.00;99082.53;5111314;28;20050;-85
2023/01/19 09:59:29;;;;;;;4.35;1.70;;;;;;;1.37;100.00;99124.88;5106365;28;20055;-85
2023/01/19 10:02:25;;;;;;;5.50;1.60;;;;;;;1.51;100.00;99128.78;5112537;28;20062;-85
2023/01/19 10:05:04;;;;;;;6.68;1.80;;;;;;;1.01;100.00;99042.41;5112188;28;20054;-85
2023/01/19 10:07:40;;;;;;;3.58;1.50;;;;;;;1.62;100.00;99128.50;5103028;28;20043;-84
2023/01/19 10:10:25;;;;;;;7.88;1.83;;;;;;;1.48;100.00;99125.44;5115874;28;20062;-84
2023/01/19 10:13:45;;;;;;;5.22;1.60;;;;;;;1.56;100.00;99120.06;5104186;28;20051;-84
2023/01/19 10:16:36;;;;;;;6.30;1.50;;;;;;;1.71;100.00;99138.56;5044998;28;20046;-85
2023/01/19 10:19:22;;;;;;;5.53;1.70;;;;;;;1.82;100.00;99138.25;5062103;28;20049;-85
2023/01/19 10:21:50;;;;;;;5.20;2.08;;;;;;;1.79;100.00;99133.22;5117317;28;20100;-85
2023/01/19 10:24:24;;;;;;;5.78;1.60;;;;;;;1.74;100.00;99135.06;5113094;28;20051;-85
2023/01/19 10:26:55;;;;;;;5.68;1.50;;;;;;;1.31;100.00;99076.88;5129574;28;20043;-84
2023/01/19 10:29:37;;;;;;;4.75;1.60;;;;;;;1.65;100.00;99128.41;5112556;28;20062;-85
2023/01/19 10:32:11;;;;;;;4.05;1.63;;;;;;;1.87;100.00;99126.09;5112955;28;20403;-85
2023/01/19 10:34:39;;;;;;;7.22;1.58;;;;;;;1.79;100.00;99109.97;5112519;28;20127;-85
2023/01/19 10:37:32;;;;;;;4.07;1.40;;;;;;;2.27;100.00;99152.53;5099773;28;20612;-85
2023/01/19 10:40:09;;;;;;;3.38;1.60;;;;;;;2.31;100.00;99156.69;5104237;28;20089;-84
2023/01/19 10:42:38;;;;;;;3.55;1.40;;;;;;;2.52;100.00;99151.81;5127806;27;20097;-85
2023/01/19 10:45:16;;;;;;;3.95;1.65;;;;;;;2.15;100.00;99137.38;5105091;27;20043;-85
2023/01/19 10:47:45;;;;;;;3.67;1.40;;;;;;;2.57;100.00;99160.28;5133447;27;20051;-84
2023/01/19 10:50:33;;;;;;;3.70;1.48;;;;;;;2.71;100.00;99162.41;5134128;27;20789;-85
2023/01/19 10:53:04;;;;;;;2.67;1.40;;;;;;;2.40;100.00;99127.16;5106626;27;20134;-84
2023/01/19 10:55:36;;;;;;;3.42;1.40;;;;;;;2.23;100.00;99102.69;5106756;27;20054;-85
2023/01/19 10:58:05;;;;;;;3.57;1.80;;;;;;;2.54;100.00;99142.25;5130909;27;20043;-85
2023/01/19 11:00:41;;;;;;;2.30;1.27;;;;;;;2.78;100.00;99154.44;5134274;27;20055;-84
2023/01/19 11:03:30;;;;;;;3.00;1.33;;;;;;;2.79;100.00;99165.63;5112709;28;20055;-85
2023/01/19 11:06:27;;;;;;;3.28;1.50;;;;;;;2.94;100.00;99166.88;5115254;27;20043;-84
2023/01/19 11:09:17;;;;;;;6.13;2.03;;;;;;;3.10;100.00;99152.56;5123861;27;20077;-84
2023/01/19 11:11:52;;;;;;;4.15;1.80;;;;;;;2.65;100.00;99104.84;5108536;27;20046;-84
2023/01/19 11:14:22;;;;;;;2.58;1.40;;;;;;;3.07;100.00;99162.16;5115113;27;20062;-85
2023/01/19 11:16:53;;;;;;;2.60;1.42;;;;;;;3.06;100.00;99169.06;5132454;27;20544;-83
2023/01/19 11:19:31;;;;;;;2.38;1.30;;;;;;;2.85;100.00;99135.25;5129473;27;20055;-83
2023/01/19 11:22:21;;;;;;;2.95;1.40;;;;;;;2.70;100.00;99111.63;5123600;27;20043;-84
2023/01/19 11:24:48;;;;;;;2.10;1.20;;;;;;;3.00;100.00;99183.03;5114513;27;20047;-84
2023/01/19 11:27:16;;;;;;;2.05;1.38;;;;;;;3.05;100.00;99172.56;5110685;27;20408;-84
2023/01/19 11:29:52;;;;;;;2.17;1.20;;;;;;;2.69;100.00;99105.59;5114959;27;20058;-84
2023/01/19 11:32:21;;;;;;;1.55;1.20;;;;;;;2.79;100.00;99150.94;5101335;27;20055;-84
2023/01/19 11:34:49;;;;;;;2.53;1.33;;;;;;;3.34;100.00;99175.94;5124230;27;20547;-84
2023/01/19 11:37:18;;;;;;;2.42;1.30;;;;;;;3.47;100.00;99174.66;5112963;27;20108;-83
2023/01/19 11:39:48;;;;;;;2.85;1.40;;;;;;;3.52;100.00;99184.81;5109995;27;20065;-82
2023/01/19 11:42:16;;;;;;;2.88;1.40;;;;;;;3.21;100.00;99159.97;5104050;27;20093;-83
2023/01/19 11:45:13;;;;;;;3.42;1.40;;;;;;;3.65;100.00;99193.88;5116930;27;20062;-84
2023/01/19 11:47:42;;;;;;;2.90;1.55;;;;;;;3.19;100.00;99170.38;5114416;27;20051;-84
2023/01/19 11:50:14;;;;;;;5.28;1.80;;;;;;;3.58;100.00;99206.19;5133796;27;20468;-84